sensor_id;sensor_type;location;lat;lon;timestamp;temperature;humidity
58993;DHT22;44782;0.000;0.000;2022-07-21T00:01:58;26.20;53.10
58993;DHT22;44782;0.000;0.000;2022-07-21T00:04:14;26.20;53.10
58993;DHT22;44782;0.000;0.000;2022-07-21T00:06:30;26.20;53.10
58993;DHT22;44782;0.000;0.000;2022-07-21T00:08:46;26.20;53.10
58993;DHT22;44782;0.000;0.000;2022-07-21T00:11:02;26.20;53.10
58993;DHT22;44782;0.000;0.000;2022-07-21T00:13:18;26.20;53.20
58993;DHT22;44782;0.000;0.000;2022-07-21T00:15:34;26.10;53.20
58993;DHT22;44782;0.000;0.000;2022-07-21T00:17:50;26.20;53.20
58993;DHT22;44782;0.000;0.000;2022-07-21T00:20:07;26.10;53.10
58993;DHT22;44782;0.000;0.000;2022-07-21T00:22:23;26.20;53.20
58993;DHT22;44782;0.000;0.000;2022-07-21T00:24:38;26.10;53.10
58993;DHT22;44782;0.000;0.000;2022-07-21T00:26:54;26.20;53.20
58993;DHT22;44782;0.000;0.000;2022-07-21T00:29:09;26.10;53.20
58993;DHT22;44782;0.000;0.000;2022-07-21T00:31:25;26.20;53.20
58993;DHT22;44782;0.000;0.000;2022-07-21T00:33:41;26.10;53.20
58993;DHT22;44782;0.000;0.000;2022-07-21T00:35:56;26.20;53.20
58993;DHT22;44782;0.000;0.000;2022-07-21T00:38:12;26.10;53.10
58993;DHT22;44782;0.000;0.000;2022-07-21T00:40:28;26.10;53.20
58993;DHT22;44782;0.000;0.000;2022-07-21T00:42:43;26.10;53.20
58993;DHT22;44782;0.000;0.000;2022-07-21T00:45:00;26.10;53.20
58993;DHT22;44782;0.000;0.000;2022-07-21T00:47:20;26.20;53.30
58993;DHT22;44782;0.000;0.000;2022-07-21T00:49:36;26.10;53.10
58993;DHT22;44782;0.000;0.000;2022-07-21T00:51:52;26.10;53.20
58993;DHT22;44782;0.000;0.000;2022-07-21T00:54:07;26.10;53.20
58993;DHT22;44782;0.000;0.000;2022-07-21T00:56:23;26.10;53.20
58993;DHT22;44782;0.000;0.000;2022-07-21T00:58:40;26.10;53.20
58993;DHT22;44782;0.000;0.000;2022-07-21T01:00:56;26.10;53.90
58993;DHT22;44782;0.000;0.000;2022-07-21T01:03:12;26.10;53.20
58993;DHT22;44782;0.000;0.000;2022-07-21T01:05:27;26.10;53.20
58993;DHT22;44782;0.000;0.000;2022-07-21T01:07:45;26.10;53.20
58993;DHT22;44782;0.000;0.000;2022-07-21T01:10:02;26.10;53.20
58993;DHT22;44782;0.000;0.000;2022-07-21T01:12:17;26.10;53.90
58993;DHT22;44782;0.000;0.000;2022-07-21T01:14:34;26.10;53.20
58993;DHT22;44782;0.000;0.000;2022-07-21T01:16:50;26.10;53.20
58993;DHT22;44782;0.000;0.000;2022-07-21T01:19:07;26.10;53.90
58993;DHT22;44782;0.000;0.000;2022-07-21T01:23:44;26.10;53.10
58993;DHT22;44782;0.000;0.000;2022-07-21T01:26:00;26.10;53.20
58993;DHT22;44782;0.000;0.000;2022-07-21T01:28:16;26.10;53.20
58993;DHT22;44782;0.000;0.000;2022-07-21T01:30:31;26.10;53.10
58993;DHT22;44782;0.000;0.000;2022-07-21T01:32:47;26.10;53.20
58993;DHT22;44782;0.000;0.000;2022-07-21T01:35:05;26.10;53.10
58993;DHT22;44782;0.000;0.000;2022-07-21T01:37:22;26.00;53.10
58993;DHT22;44782;0.000;0.000;2022-07-21T01:39:38;26.10;53.10
58993;DHT22;44782;0.000;0.000;2022-07-21T01:42:12;26.10;53.10
58993;DHT22;44782;0.000;0.000;2022-07-21T01:44:28;26.10;53.10
58993;DHT22;44782;0.000;0.000;2022-07-21T01:46:47;26.00;53.00
58993;DHT22;44782;0.000;0.000;2022-07-21T01:49:03;26.00;53.70
58993;DHT22;44782;0.000;0.000;2022-07-21T01:51:19;26.00;53.00
58993;DHT22;44782;0.000;0.000;2022-07-21T01:53:35;26.00;53.00
58993;DHT22;44782;0.000;0.000;2022-07-21T01:55:50;26.00;52.90
58993;DHT22;44782;0.000;0.000;2022-07-21T01:58:06;26.00;52.90
58993;DHT22;44782;0.000;0.000;2022-07-21T02:00:22;26.00;52.90
58993;DHT22;44782;0.000;0.000;2022-07-21T02:02:37;26.00;53.00
58993;DHT22;44782;0.000;0.000;2022-07-21T02:04:53;26.00;52.90
58993;DHT22;44782;0.000;0.000;2022-07-21T02:07:08;26.00;52.90
58993;DHT22;44782;0.000;0.000;2022-07-21T02:09:24;26.00;52.90
58993;DHT22;44782;0.000;0.000;2022-07-21T02:11:39;26.00;52.90
58993;DHT22;44782;0.000;0.000;2022-07-21T02:13:55;25.90;52.70
58993;DHT22;44782;0.000;0.000;2022-07-21T02:16:11;26.00;52.80
58993;DHT22;44782;0.000;0.000;2022-07-21T02:18:27;25.90;52.80
58993;DHT22;44782;0.000;0.000;2022-07-21T02:20:43;26.00;53.50
58993;DHT22;44782;0.000;0.000;2022-07-21T02:23:00;25.90;52.70
58993;DHT22;44782;0.000;0.000;2022-07-21T02:25:16;25.90;52.70
58993;DHT22;44782;0.000;0.000;2022-07-21T02:27:31;25.90;52.80
58993;DHT22;44782;0.000;0.000;2022-07-21T02:29:47;25.90;53.40
58993;DHT22;44782;0.000;0.000;2022-07-21T02:32:03;25.90;52.70
58993;DHT22;44782;0.000;0.000;2022-07-21T02:34:19;25.90;52.70
58993;DHT22;44782;0.000;0.000;2022-07-21T02:36:34;25.90;52.60
58993;DHT22;44782;0.000;0.000;2022-07-21T02:38:50;25.90;52.60
58993;DHT22;44782;0.000;0.000;2022-07-21T02:41:06;25.90;52.60
58993;DHT22;44782;0.000;0.000;2022-07-21T02:43:21;25.90;52.60
58993;DHT22;44782;0.000;0.000;2022-07-21T02:45:37;25.90;52.60
58993;DHT22;44782;0.000;0.000;2022-07-21T02:47:55;25.90;52.60
58993;DHT22;44782;0.000;0.000;2022-07-21T02:50:11;25.90;52.50
58993;DHT22;44782;0.000;0.000;2022-07-21T02:52:27;25.90;52.50
58993;DHT22;44782;0.000;0.000;2022-07-21T02:54:42;25.80;52.50
58993;DHT22;44782;0.000;0.000;2022-07-21T02:56:58;25.90;52.60
58993;DHT22;44782;0.000;0.000;2022-07-21T02:59:14;25.80;52.50
58993;DHT22;44782;0.000;0.000;2022-07-21T03:01:29;25.80;52.50
58993;DHT22;44782;0.000;0.000;2022-07-21T03:03:45;25.80;52.40
58993;DHT22;44782;0.000;0.000;2022-07-21T03:06:00;25.80;52.50
58993;DHT22;44782;0.000;0.000;2022-07-21T03:08:16;25.80;52.40
58993;DHT22;44782;0.000;0.000;2022-07-21T03:10:33;25.80;52.50
58993;DHT22;44782;0.000;0.000;2022-07-21T03:12:49;25.80;52.40
58993;DHT22;44782;0.000;0.000;2022-07-21T03:15:05;25.80;53.20
58993;DHT22;44782;0.000;0.000;2022-07-21T03:17:20;25.80;52.50
58993;DHT22;44782;0.000;0.000;2022-07-21T03:19:38;25.80;52.40
58993;DHT22;44782;0.000;0.000;2022-07-21T03:21:54;25.80;52.50
58993;DHT22;44782;0.000;0.000;2022-07-21T03:24:09;25.80;52.50
58993;DHT22;44782;0.000;0.000;2022-07-21T03:26:25;25.80;52.50
58993;DHT22;44782;0.000;0.000;2022-07-21T03:28:42;25.80;52.50
58993;DHT22;44782;0.000;0.000;2022-07-21T03:30:58;25.80;52.50
58993;DHT22;44782;0.000;0.000;2022-07-21T03:33:13;25.70;52.50
58993;DHT22;44782;0.000;0.000;2022-07-21T03:35:29;25.80;52.50
58993;DHT22;44782;0.000;0.000;2022-07-21T03:37:54;25.80;52.50
58993;DHT22;44782;0.000;0.000;2022-07-21T03:40:12;25.80;52.40
58993;DHT22;44782;0.000;0.000;2022-07-21T03:42:28;25.70;52.50
58993;DHT22;44782;0.000;0.000;2022-07-21T03:44:43;25.70;52.50
58993;DHT22;44782;0.000;0.000;2022-07-21T03:46:59;25.80;52.50
58993;DHT22;44782;0.000;0.000;2022-07-21T03:49:15;25.80;52.50
58993;DHT22;44782;0.000;0.000;2022-07-21T03:51:30;25.80;52.40
58993;DHT22;44782;0.000;0.000;2022-07-21T03:53:46;25.80;52.50
58993;DHT22;44782;0.000;0.000;2022-07-21T03:56:01;25.70;52.40
58993;DHT22;44782;0.000;0.000;2022-07-21T03:58:17;25.80;52.50
58993;DHT22;44782;0.000;0.000;2022-07-21T04:00:37;25.80;52.50
58993;DHT22;44782;0.000;0.000;2022-07-21T04:02:53;25.80;52.50
58993;DHT22;44782;0.000;0.000;2022-07-21T04:05:13;25.80;52.50
58993;DHT22;44782;0.000;0.000;2022-07-21T04:07:29;25.80;52.40
58993;DHT22;44782;0.000;0.000;2022-07-21T04:09:44;25.70;52.40
58993;DHT22;44782;0.000;0.000;2022-07-21T04:12:00;25.70;52.40
58993;DHT22;44782;0.000;0.000;2022-07-21T04:14:15;25.80;52.50
58993;DHT22;44782;0.000;0.000;2022-07-21T04:16:31;25.70;52.40
58993;DHT22;44782;0.000;0.000;2022-07-21T04:18:46;25.80;52.50
58993;DHT22;44782;0.000;0.000;2022-07-21T04:21:02;25.70;52.40
58993;DHT22;44782;0.000;0.000;2022-07-21T04:23:18;25.70;52.50
58993;DHT22;44782;0.000;0.000;2022-07-21T04:25:34;25.70;52.50
58993;DHT22;44782;0.000;0.000;2022-07-21T04:27:51;25.80;52.50
58993;DHT22;44782;0.000;0.000;2022-07-21T04:30:09;25.80;52.50
58993;DHT22;44782;0.000;0.000;2022-07-21T04:32:25;25.80;52.50
58993;DHT22;44782;0.000;0.000;2022-07-21T04:34:41;25.70;52.50
58993;DHT22;44782;0.000;0.000;2022-07-21T04:36:56;25.80;52.50
58993;DHT22;44782;0.000;0.000;2022-07-21T04:39:12;25.70;52.50
58993;DHT22;44782;0.000;0.000;2022-07-21T04:41:28;25.80;52.60
58993;DHT22;44782;0.000;0.000;2022-07-21T04:43:43;25.80;52.60
58993;DHT22;44782;0.000;0.000;2022-07-21T04:45:59;25.80;52.70
58993;DHT22;44782;0.000;0.000;2022-07-21T04:48:14;25.80;52.70
58993;DHT22;44782;0.000;0.000;2022-07-21T04:50:30;25.80;52.60
58993;DHT22;44782;0.000;0.000;2022-07-21T04:52:47;25.70;52.60
58993;DHT22;44782;0.000;0.000;2022-07-21T04:55:03;25.80;52.60
58993;DHT22;44782;0.000;0.000;2022-07-21T04:57:19;25.80;52.60
58993;DHT22;44782;0.000;0.000;2022-07-21T04:59:35;25.70;52.60
58993;DHT22;44782;0.000;0.000;2022-07-21T05:01:51;25.70;52.60
58993;DHT22;44782;0.000;0.000;2022-07-21T05:04:07;25.70;52.60
58993;DHT22;44782;0.000;0.000;2022-07-21T05:06:23;25.70;52.60
58993;DHT22;44782;0.000;0.000;2022-07-21T05:08:38;25.70;52.70
58993;DHT22;44782;0.000;0.000;2022-07-21T05:10:54;25.70;52.60
58993;DHT22;44782;0.000;0.000;2022-07-21T05:13:10;25.80;52.70
58993;DHT22;44782;0.000;0.000;2022-07-21T05:15:25;25.70;52.70
58993;DHT22;44782;0.000;0.000;2022-07-21T05:17:41;25.70;52.70
58993;DHT22;44782;0.000;0.000;2022-07-21T05:19:59;25.70;52.60
58993;DHT22;44782;0.000;0.000;2022-07-21T05:22:14;25.70;52.60
58993;DHT22;44782;0.000;0.000;2022-07-21T05:24:30;25.70;52.60
58993;DHT22;44782;0.000;0.000;2022-07-21T05:26:45;25.70;52.60
58993;DHT22;44782;0.000;0.000;2022-07-21T05:29:01;25.70;52.60
58993;DHT22;44782;0.000;0.000;2022-07-21T05:31:17;25.70;53.20
58993;DHT22;44782;0.000;0.000;2022-07-21T05:33:33;25.70;52.70
58993;DHT22;44782;0.000;0.000;2022-07-21T05:35:49;25.70;52.60
58993;DHT22;44782;0.000;0.000;2022-07-21T05:38:04;25.70;52.60
58993;DHT22;44782;0.000;0.000;2022-07-21T05:40:20;25.70;52.70
58993;DHT22;44782;0.000;0.000;2022-07-21T05:42:36;25.70;52.70
58993;DHT22;44782;0.000;0.000;2022-07-21T05:44:52;25.70;52.70
58993;DHT22;44782;0.000;0.000;2022-07-21T05:47:08;25.70;52.80
58993;DHT22;44782;0.000;0.000;2022-07-21T05:49:24;25.70;52.80
58993;DHT22;44782;0.000;0.000;2022-07-21T05:51:39;25.70;52.80
58993;DHT22;44782;0.000;0.000;2022-07-21T05:53:55;25.70;52.80
58993;DHT22;44782;0.000;0.000;2022-07-21T05:56:11;25.70;52.90
58993;DHT22;44782;0.000;0.000;2022-07-21T05:58:27;25.70;52.80
58993;DHT22;44782;0.000;0.000;2022-07-21T06:00:42;25.70;52.90
58993;DHT22;44782;0.000;0.000;2022-07-21T06:02:58;25.70;52.90
58993;DHT22;44782;0.000;0.000;2022-07-21T06:05:13;25.70;52.90
58993;DHT22;44782;0.000;0.000;2022-07-21T06:07:29;25.70;53.00
58993;DHT22;44782;0.000;0.000;2022-07-21T06:09:45;25.70;52.90
58993;DHT22;44782;0.000;0.000;2022-07-21T06:12:00;25.70;52.90
58993;DHT22;44782;0.000;0.000;2022-07-21T06:14:16;25.80;53.10
58993;DHT22;44782;0.000;0.000;2022-07-21T06:16:31;25.80;52.70
58993;DHT22;44782;0.000;0.000;2022-07-21T06:18:47;25.90;52.70
58993;DHT22;44782;0.000;0.000;2022-07-21T06:21:03;26.00;52.60
58993;DHT22;44782;0.000;0.000;2022-07-21T06:23:19;26.00;52.50
58993;DHT22;44782;0.000;0.000;2022-07-21T06:25:34;26.10;53.10
58993;DHT22;44782;0.000;0.000;2022-07-21T06:27:50;26.10;52.40
58993;DHT22;44782;0.000;0.000;2022-07-21T06:30:07;26.20;52.50
58993;DHT22;44782;0.000;0.000;2022-07-21T06:32:23;26.30;52.40
58993;DHT22;44782;0.000;0.000;2022-07-21T06:34:38;26.30;52.30
58993;DHT22;44782;0.000;0.000;2022-07-21T06:36:54;26.40;52.20
58993;DHT22;44782;0.000;0.000;2022-07-21T06:39:10;26.40;53.00
58993;DHT22;44782;0.000;0.000;2022-07-21T06:41:28;26.40;52.20
58993;DHT22;44782;0.000;0.000;2022-07-21T06:43:44;26.40;52.30
58993;DHT22;44782;0.000;0.000;2022-07-21T06:45:59;26.40;52.30
58993;DHT22;44782;0.000;0.000;2022-07-21T06:48:15;26.40;52.40
58993;DHT22;44782;0.000;0.000;2022-07-21T06:50:31;26.40;52.50
58993;DHT22;44782;0.000;0.000;2022-07-21T06:52:47;26.40;52.50
58993;DHT22;44782;0.000;0.000;2022-07-21T06:55:04;26.40;52.70
58993;DHT22;44782;0.000;0.000;2022-07-21T06:57:20;26.40;52.70
58993;DHT22;44782;0.000;0.000;2022-07-21T06:59:35;26.40;52.70
58993;DHT22;44782;0.000;0.000;2022-07-21T07:01:51;26.50;52.70
58993;DHT22;44782;0.000;0.000;2022-07-21T07:04:07;26.50;52.70
58993;DHT22;44782;0.000;0.000;2022-07-21T07:06:23;26.50;52.60
58993;DHT22;44782;0.000;0.000;2022-07-21T07:08:38;26.50;52.60
58993;DHT22;44782;0.000;0.000;2022-07-21T07:10:54;26.50;52.60
58993;DHT22;44782;0.000;0.000;2022-07-21T07:13:10;26.50;52.60
58993;DHT22;44782;0.000;0.000;2022-07-21T07:15:26;26.50;52.60
58993;DHT22;44782;0.000;0.000;2022-07-21T07:17:42;26.50;52.60
58993;DHT22;44782;0.000;0.000;2022-07-21T07:19:57;26.50;52.60
58993;DHT22;44782;0.000;0.000;2022-07-21T07:22:14;26.50;52.60
58993;DHT22;44782;0.000;0.000;2022-07-21T07:24:29;26.50;52.60
58993;DHT22;44782;0.000;0.000;2022-07-21T07:26:45;26.40;52.70
58993;DHT22;44782;0.000;0.000;2022-07-21T07:29:00;26.40;52.80
58993;DHT22;44782;0.000;0.000;2022-07-21T07:31:16;26.40;52.90
58993;DHT22;44782;0.000;0.000;2022-07-21T07:33:32;26.40;52.90
58993;DHT22;44782;0.000;0.000;2022-07-21T07:35:47;26.40;52.90
58993;DHT22;44782;0.000;0.000;2022-07-21T07:38:03;26.50;53.00
58993;DHT22;44782;0.000;0.000;2022-07-21T07:40:21;26.50;53.00
58993;DHT22;44782;0.000;0.000;2022-07-21T07:42:38;26.50;53.00
58993;DHT22;44782;0.000;0.000;2022-07-21T07:44:54;26.50;53.00
58993;DHT22;44782;0.000;0.000;2022-07-21T07:47:09;26.50;53.00
58993;DHT22;44782;0.000;0.000;2022-07-21T07:49:25;26.50;53.10
58993;DHT22;44782;0.000;0.000;2022-07-21T07:51:40;26.50;53.10
58993;DHT22;44782;0.000;0.000;2022-07-21T07:53:56;26.50;53.00
58993;DHT22;44782;0.000;0.000;2022-07-21T07:56:12;26.50;53.00
58993;DHT22;44782;0.000;0.000;2022-07-21T07:58:27;26.50;52.90
58993;DHT22;44782;0.000;0.000;2022-07-21T08:00:43;26.40;52.90
58993;DHT22;44782;0.000;0.000;2022-07-21T08:02:59;26.40;52.90
58993;DHT22;44782;0.000;0.000;2022-07-21T08:05:14;26.40;52.90
58993;DHT22;44782;0.000;0.000;2022-07-21T08:07:30;26.40;53.00
58993;DHT22;44782;0.000;0.000;2022-07-21T08:09:46;26.40;53.00
58993;DHT22;44782;0.000;0.000;2022-07-21T08:12:02;26.40;53.00
58993;DHT22;44782;0.000;0.000;2022-07-21T08:14:17;26.40;52.90
58993;DHT22;44782;0.000;0.000;2022-07-21T08:16:34;26.40;52.90
58993;DHT22;44782;0.000;0.000;2022-07-21T08:18:50;26.40;52.90
58993;DHT22;44782;0.000;0.000;2022-07-21T08:21:06;26.50;52.90
58993;DHT22;44782;0.000;0.000;2022-07-21T08:23:21;26.40;52.90
58993;DHT22;44782;0.000;0.000;2022-07-21T08:25:37;26.40;52.80
58993;DHT22;44782;0.000;0.000;2022-07-21T08:27:53;26.40;52.80
58993;DHT22;44782;0.000;0.000;2022-07-21T08:30:09;26.40;52.80
58993;DHT22;44782;0.000;0.000;2022-07-21T08:32:25;26.40;52.80
58993;DHT22;44782;0.000;0.000;2022-07-21T08:34:41;26.40;52.70
58993;DHT22;44782;0.000;0.000;2022-07-21T08:36:57;26.40;52.70
58993;DHT22;44782;0.000;0.000;2022-07-21T08:39:13;26.40;52.60
58993;DHT22;44782;0.000;0.000;2022-07-21T08:41:28;26.40;52.60
58993;DHT22;44782;0.000;0.000;2022-07-21T08:43:44;26.40;52.50
58993;DHT22;44782;0.000;0.000;2022-07-21T08:46:01;26.40;52.50
58993;DHT22;44782;0.000;0.000;2022-07-21T08:48:20;26.40;52.60
58993;DHT22;44782;0.000;0.000;2022-07-21T08:50:39;26.40;52.60
58993;DHT22;44782;0.000;0.000;2022-07-21T08:52:55;26.40;52.50
58993;DHT22;44782;0.000;0.000;2022-07-21T08:55:11;26.40;52.60
58993;DHT22;44782;0.000;0.000;2022-07-21T08:57:27;26.40;52.60
58993;DHT22;44782;0.000;0.000;2022-07-21T08:59:42;26.40;52.60
58993;DHT22;44782;0.000;0.000;2022-07-21T09:01:58;26.40;52.50
58993;DHT22;44782;0.000;0.000;2022-07-21T09:04:31;26.40;52.50
58993;DHT22;44782;0.000;0.000;2022-07-21T09:06:59;26.40;52.30
58993;DHT22;44782;0.000;0.000;2022-07-21T09:09:19;26.40;52.50
58993;DHT22;44782;0.000;0.000;2022-07-21T09:11:43;26.40;52.60
58993;DHT22;44782;0.000;0.000;2022-07-21T09:14:15;26.40;52.40
58993;DHT22;44782;0.000;0.000;2022-07-21T09:16:36;26.40;52.50
58993;DHT22;44782;0.000;0.000;2022-07-21T09:18:51;26.30;52.50
58993;DHT22;44782;0.000;0.000;2022-07-21T09:21:10;26.30;52.50
58993;DHT22;44782;0.000;0.000;2022-07-21T09:23:26;26.40;52.50
58993;DHT22;44782;0.000;0.000;2022-07-21T09:25:43;26.40;52.50
58993;DHT22;44782;0.000;0.000;2022-07-21T09:31:03;26.40;52.30
58993;DHT22;44782;0.000;0.000;2022-07-21T09:33:34;26.40;52.30
58993;DHT22;44782;0.000;0.000;2022-07-21T09:35:54;26.30;52.20
58993;DHT22;44782;0.000;0.000;2022-07-21T09:38:13;26.30;52.20
58993;DHT22;44782;0.000;0.000;2022-07-21T09:40:28;26.40;52.20
58993;DHT22;44782;0.000;0.000;2022-07-21T09:42:49;26.30;52.20
58993;DHT22;44782;0.000;0.000;2022-07-21T09:47:25;26.30;52.20
58993;DHT22;44782;0.000;0.000;2022-07-21T09:49:42;26.30;52.30
58993;DHT22;44782;0.000;0.000;2022-07-21T09:51:57;26.30;52.30
58993;DHT22;44782;0.000;0.000;2022-07-21T09:54:13;26.30;52.20
58993;DHT22;44782;0.000;0.000;2022-07-21T09:56:38;26.40;52.30
58993;DHT22;44782;0.000;0.000;2022-07-21T09:58:54;26.40;52.20
58993;DHT22;44782;0.000;0.000;2022-07-21T10:01:10;26.40;52.10
58993;DHT22;44782;0.000;0.000;2022-07-21T10:03:26;26.40;52.00
58993;DHT22;44782;0.000;0.000;2022-07-21T10:05:42;26.40;52.00
58993;DHT22;44782;0.000;0.000;2022-07-21T10:07:58;26.40;52.00
58993;DHT22;44782;0.000;0.000;2022-07-21T10:10:16;26.40;51.90
58993;DHT22;44782;0.000;0.000;2022-07-21T10:12:33;26.40;51.80
58993;DHT22;44782;0.000;0.000;2022-07-21T10:14:49;26.50;51.80
58993;DHT22;44782;0.000;0.000;2022-07-21T10:17:05;26.50;51.80
58993;DHT22;44782;0.000;0.000;2022-07-21T10:19:30;26.50;51.80
58993;DHT22;44782;0.000;0.000;2022-07-21T10:22:08;26.50;51.70
58993;DHT22;44782;0.000;0.000;2022-07-21T10:24:28;26.50;51.80
58993;DHT22;44782;0.000;0.000;2022-07-21T10:27:09;26.50;52.00
58993;DHT22;44782;0.000;0.000;2022-07-21T10:29:50;26.60;52.00
58993;DHT22;44782;0.000;0.000;2022-07-21T10:32:11;26.60;52.10
58993;DHT22;44782;0.000;0.000;2022-07-21T10:34:35;26.60;52.30
58993;DHT22;44782;0.000;0.000;2022-07-21T10:36:51;26.60;52.10
58993;DHT22;44782;0.000;0.000;2022-07-21T10:41:43;26.70;52.10
58993;DHT22;44782;0.000;0.000;2022-07-21T10:43:59;26.70;51.90
58993;DHT22;44782;0.000;0.000;2022-07-21T10:46:34;26.60;52.10
58993;DHT22;44782;0.000;0.000;2022-07-21T10:48:50;26.70;51.90
58993;DHT22;44782;0.000;0.000;2022-07-21T10:51:11;26.70;52.10
58993;DHT22;44782;0.000;0.000;2022-07-21T10:53:27;26.70;52.10
58993;DHT22;44782;0.000;0.000;2022-07-21T10:55:54;26.70;52.00
58993;DHT22;44782;0.000;0.000;2022-07-21T11:00:33;26.70;51.90
58993;DHT22;44782;0.000;0.000;2022-07-21T11:02:59;26.80;51.90
58993;DHT22;44782;0.000;0.000;2022-07-21T11:05:16;26.80;51.80
58993;DHT22;44782;0.000;0.000;2022-07-21T11:10:17;26.80;51.60
58993;DHT22;44782;0.000;0.000;2022-07-21T11:12:56;26.80;51.30
58993;DHT22;44782;0.000;0.000;2022-07-21T11:18:00;26.80;51.40
58993;DHT22;44782;0.000;0.000;2022-07-21T11:20:16;26.80;51.50
58993;DHT22;44782;0.000;0.000;2022-07-21T11:22:32;26.80;51.50
58993;DHT22;44782;0.000;0.000;2022-07-21T11:24:57;26.80;51.50
58993;DHT22;44782;0.000;0.000;2022-07-21T11:27:21;26.80;51.30
58993;DHT22;44782;0.000;0.000;2022-07-21T11:29:38;26.80;51.40
58993;DHT22;44782;0.000;0.000;2022-07-21T11:31:54;26.80;51.50
58993;DHT22;44782;0.000;0.000;2022-07-21T11:34:10;26.80;51.50
58993;DHT22;44782;0.000;0.000;2022-07-21T11:36:31;26.80;51.50
58993;DHT22;44782;0.000;0.000;2022-07-21T11:41:16;26.80;51.30
58993;DHT22;44782;0.000;0.000;2022-07-21T11:43:43;26.70;51.30
58993;DHT22;44782;0.000;0.000;2022-07-21T11:45:59;26.70;51.10
58993;DHT22;44782;0.000;0.000;2022-07-21T11:48:15;26.70;51.30
58993;DHT22;44782;0.000;0.000;2022-07-21T11:51:04;26.70;51.20
58993;DHT22;44782;0.000;0.000;2022-07-21T11:53:20;26.70;51.20
58993;DHT22;44782;0.000;0.000;2022-07-21T11:55:36;26.70;51.30
58993;DHT22;44782;0.000;0.000;2022-07-21T11:57:51;26.70;51.30
58993;DHT22;44782;0.000;0.000;2022-07-21T12:00:07;26.70;51.30
58993;DHT22;44782;0.000;0.000;2022-07-21T12:02:26;26.70;51.20
58993;DHT22;44782;0.000;0.000;2022-07-21T12:04:51;26.70;51.20
58993;DHT22;44782;0.000;0.000;2022-07-21T12:07:12;26.70;51.30
58993;DHT22;44782;0.000;0.000;2022-07-21T12:09:28;26.70;51.20
58993;DHT22;44782;0.000;0.000;2022-07-21T12:11:44;26.70;51.20
58993;DHT22;44782;0.000;0.000;2022-07-21T12:14:00;26.70;51.30
58993;DHT22;44782;0.000;0.000;2022-07-21T12:16:18;26.70;51.40
58993;DHT22;44782;0.000;0.000;2022-07-21T12:18:33;26.60;51.40
58993;DHT22;44782;0.000;0.000;2022-07-21T12:20:49;26.60;51.40
58993;DHT22;44782;0.000;0.000;2022-07-21T12:23:23;26.70;51.40
58993;DHT22;44782;0.000;0.000;2022-07-21T12:25:39;26.70;51.20
58993;DHT22;44782;0.000;0.000;2022-07-21T12:27:55;26.60;51.40
58993;DHT22;44782;0.000;0.000;2022-07-21T12:32:50;26.70;51.20
58993;DHT22;44782;0.000;0.000;2022-07-21T12:35:05;26.60;51.40
58993;DHT22;44782;0.000;0.000;2022-07-21T12:37:21;26.60;51.40
58993;DHT22;44782;0.000;0.000;2022-07-21T12:39:37;26.60;51.40
58993;DHT22;44782;0.000;0.000;2022-07-21T12:42:33;26.70;51.50
58993;DHT22;44782;0.000;0.000;2022-07-21T12:44:51;26.70;51.30
58993;DHT22;44782;0.000;0.000;2022-07-21T12:47:17;26.60;51.50
58993;DHT22;44782;0.000;0.000;2022-07-21T12:49:53;26.60;51.80
58993;DHT22;44782;0.000;0.000;2022-07-21T12:52:11;26.60;51.70
58993;DHT22;44782;0.000;0.000;2022-07-21T12:54:26;26.60;51.80
58993;DHT22;44782;0.000;0.000;2022-07-21T12:56:42;26.60;51.80
58993;DHT22;44782;0.000;0.000;2022-07-21T12:58:59;26.60;51.90
58993;DHT22;44782;0.000;0.000;2022-07-21T13:01:17;26.60;51.90
58993;DHT22;44782;0.000;0.000;2022-07-21T13:03:34;26.60;51.90
58993;DHT22;44782;0.000;0.000;2022-07-21T13:05:50;26.60;51.80
58993;DHT22;44782;0.000;0.000;2022-07-21T13:08:05;26.60;51.90
58993;DHT22;44782;0.000;0.000;2022-07-21T13:10:21;26.60;52.00
58993;DHT22;44782;0.000;0.000;2022-07-21T13:12:37;26.60;52.00
58993;DHT22;44782;0.000;0.000;2022-07-21T13:14:53;26.60;52.10
58993;DHT22;44782;0.000;0.000;2022-07-21T13:17:09;26.60;52.10
58993;DHT22;44782;0.000;0.000;2022-07-21T13:19:25;26.60;52.20
58993;DHT22;44782;0.000;0.000;2022-07-21T13:21:40;26.60;52.30
58993;DHT22;44782;0.000;0.000;2022-07-21T13:23:56;26.60;52.20
58993;DHT22;44782;0.000;0.000;2022-07-21T13:26:11;26.60;52.20
58993;DHT22;44782;0.000;0.000;2022-07-21T13:28:27;26.60;52.20
58993;DHT22;44782;0.000;0.000;2022-07-21T13:30:44;26.60;52.20
58993;DHT22;44782;0.000;0.000;2022-07-21T13:33:00;26.50;52.10
58993;DHT22;44782;0.000;0.000;2022-07-21T13:35:16;26.50;51.50
58993;DHT22;44782;0.000;0.000;2022-07-21T13:37:32;26.50;52.10
58993;DHT22;44782;0.000;0.000;2022-07-21T13:39:47;26.50;52.20
58993;DHT22;44782;0.000;0.000;2022-07-21T13:42:04;26.50;52.10
58993;DHT22;44782;0.000;0.000;2022-07-21T13:44:20;26.50;52.10
58993;DHT22;44782;0.000;0.000;2022-07-21T13:46:36;26.60;52.30
58993;DHT22;44782;0.000;0.000;2022-07-21T13:48:52;26.50;52.10
58993;DHT22;44782;0.000;0.000;2022-07-21T13:51:08;26.50;52.10
58993;DHT22;44782;0.000;0.000;2022-07-21T13:53:24;26.50;52.10
58993;DHT22;44782;0.000;0.000;2022-07-21T13:55:40;26.50;52.10
58993;DHT22;44782;0.000;0.000;2022-07-21T13:57:55;26.50;52.10
58993;DHT22;44782;0.000;0.000;2022-07-21T14:00:11;26.50;52.10
58993;DHT22;44782;0.000;0.000;2022-07-21T14:02:27;26.50;52.10
58993;DHT22;44782;0.000;0.000;2022-07-21T14:04:43;26.50;52.00
58993;DHT22;44782;0.000;0.000;2022-07-21T14:06:59;26.50;52.10
58993;DHT22;44782;0.000;0.000;2022-07-21T14:09:15;26.50;52.10
58993;DHT22;44782;0.000;0.000;2022-07-21T14:11:31;26.50;52.10
58993;DHT22;44782;0.000;0.000;2022-07-21T14:13:46;26.50;52.10
58993;DHT22;44782;0.000;0.000;2022-07-21T14:16:02;26.50;52.10
58993;DHT22;44782;0.000;0.000;2022-07-21T14:18:18;26.50;52.00
58993;DHT22;44782;0.000;0.000;2022-07-21T14:20:34;26.50;52.00
58993;DHT22;44782;0.000;0.000;2022-07-21T14:22:49;26.50;52.00
58993;DHT22;44782;0.000;0.000;2022-07-21T14:25:05;26.50;52.00
58993;DHT22;44782;0.000;0.000;2022-07-21T14:27:33;26.50;52.10
58993;DHT22;44782;0.000;0.000;2022-07-21T14:29:49;26.50;52.00
58993;DHT22;44782;0.000;0.000;2022-07-21T14:32:07;26.50;52.00
58993;DHT22;44782;0.000;0.000;2022-07-21T14:34:22;26.50;51.90
58993;DHT22;44782;0.000;0.000;2022-07-21T14:36:38;26.50;51.90
58993;DHT22;44782;0.000;0.000;2022-07-21T14:38:54;26.60;52.00
58993;DHT22;44782;0.000;0.000;2022-07-21T14:41:09;26.50;51.90
58993;DHT22;44782;0.000;0.000;2022-07-21T14:43:25;26.50;51.90
58993;DHT22;44782;0.000;0.000;2022-07-21T14:45:41;26.50;51.90
58993;DHT22;44782;0.000;0.000;2022-07-21T14:47:57;26.50;51.90
58993;DHT22;44782;0.000;0.000;2022-07-21T14:50:14;26.50;51.80
58993;DHT22;44782;0.000;0.000;2022-07-21T14:52:30;26.50;51.90
58993;DHT22;44782;0.000;0.000;2022-07-21T14:54:46;26.50;51.80
58993;DHT22;44782;0.000;0.000;2022-07-21T14:57:02;26.50;51.90
58993;DHT22;44782;0.000;0.000;2022-07-21T14:59:19;26.50;51.90
58993;DHT22;44782;0.000;0.000;2022-07-21T15:01:35;26.50;51.80
58993;DHT22;44782;0.000;0.000;2022-07-21T15:03:50;26.50;51.80